createdAt,value
2018-08-03T09:23:41.976Z,280.00
2018-08-03T09:24:41.966Z,276.00
2018-08-03T09:25:41.870Z,272.00
2018-08-03T09:26:41.811Z,268.00
2018-08-03T09:27:41.757Z,256.00
2018-08-03T09:28:41.729Z,252.00
2018-08-03T09:29:41.657Z,244.00
2018-08-03T09:30:51.732Z,244.00
2018-08-03T09:31:51.682Z,240.00
2018-08-03T09:32:51.670Z,232.00
2018-08-03T09:33:51.679Z,228.00
2018-08-03T09:34:51.646Z,224.00
2018-08-03T09:35:51.638Z,224.00
2018-08-03T09:36:51.627Z,224.00
2018-08-03T09:37:51.615Z,492.00
2018-08-03T09:38:51.630Z,488.00
2018-08-03T09:39:51.592Z,456.00
2018-08-03T10:03:02.806Z,112640.00
2018-08-03T10:04:02.770Z,110880.00
2018-08-03T10:05:02.761Z,114496.00
2018-08-03T10:06:02.749Z,112320.00
2018-08-03T10:07:02.762Z,110816.00
2018-08-03T10:08:02.730Z,109824.00
2018-08-03T10:09:02.722Z,108640.00
2018-08-03T10:10:02.710Z,112416.00
2018-08-03T10:11:02.699Z,113504.00
2018-08-03T10:12:02.721Z,114336.00
2018-08-03T10:13:02.689Z,113088.00
2018-08-03T10:14:02.704Z,112256.00
2018-08-03T10:15:02.667Z,113312.00
2018-08-03T10:16:02.657Z,115872.00
2018-08-03T10:17:02.671Z,113312.00
2018-08-03T10:18:02.642Z,111616.00
2018-08-03T10:19:02.636Z,111712.00
2018-08-03T10:20:02.629Z,113600.00
2018-08-03T10:21:02.619Z,116704.00
2018-08-03T10:22:02.627Z,115968.00
2018-08-03T10:23:02.606Z,114592.00
2018-08-03T10:24:02.629Z,113312.00
2018-08-03T10:25:02.593Z,113152.00
2018-08-03T10:26:02.602Z,112928.00
2018-08-03T10:27:02.599Z,116512.00
2018-08-03T10:28:02.580Z,115744.00
2018-08-03T10:29:02.562Z,115488.00
2018-08-03T10:30:02.565Z,117696.00
2018-08-03T10:31:02.582Z,118816.00
2018-08-03T10:32:02.542Z,119936.00
2018-08-03T10:33:02.533Z,113248.00
2018-08-03T10:34:02.530Z,113792.00
2018-08-03T10:35:02.532Z,113568.00
2018-08-03T10:36:02.555Z,112960.00
2018-08-03T10:37:02.506Z,111200.00
2018-08-03T10:38:02.503Z,110144.00
2018-08-03T10:39:02.516Z,52544.00
2018-08-03T10:40:02.486Z,14056.00
2018-08-03T10:41:02.512Z,10232.00
2018-08-03T10:42:02.504Z,10304.00
2018-08-03T10:43:02.492Z,10464.00
2018-08-03T10:44:02.458Z,10592.00
2018-08-03T10:45:02.452Z,10532.00
2018-08-03T10:46:02.444Z,10784.00
2018-08-03T10:47:02.520Z,10844.00
2018-08-03T10:48:02.452Z,10668.00
2018-08-03T10:49:02.418Z,10628.00
2018-08-03T10:50:02.410Z,10880.00
2018-08-03T10:51:02.403Z,11148.00
2018-08-03T10:52:02.391Z,11296.00
2018-08-03T10:53:02.415Z,11380.00
2018-08-03T10:54:02.376Z,11432.00
2018-08-03T10:55:02.370Z,11332.00
2018-08-03T10:56:02.359Z,10976.00
2018-08-03T10:57:02.350Z,11028.00
2018-08-03T10:58:02.361Z,11552.00
2018-08-03T10:59:02.370Z,11424.00
2018-08-03T11:00:02.318Z,11116.00
2018-08-03T11:01:02.310Z,11284.00
2018-08-03T11:02:02.305Z,11400.00
2018-08-03T11:03:02.291Z,11416.00
2018-08-03T11:04:02.315Z,11448.00
2018-08-03T11:05:02.273Z,11844.00
2018-08-03T11:06:02.263Z,11924.00
2018-08-03T11:07:02.252Z,11796.00
2018-08-03T11:08:02.245Z,10984.00
2018-08-03T11:09:02.262Z,8252.00
2018-08-03T11:10:02.225Z,6284.00
2018-08-03T11:11:02.215Z,7864.00
2018-08-03T11:12:02.205Z,11428.00
2018-08-03T11:13:02.196Z,11736.00
2018-08-03T11:14:02.284Z,11632.00
2018-08-03T11:15:02.173Z,11712.00
2018-08-03T11:16:02.168Z,11824.00
2018-08-03T11:17:02.161Z,11540.00
2018-08-03T11:18:02.144Z,11020.00
2018-08-03T11:19:02.164Z,11436.00
2018-08-03T11:20:02.125Z,11624.00
2018-08-03T11:21:02.115Z,12020.00
2018-08-03T11:22:02.105Z,11756.00
2018-08-03T11:23:02.095Z,11420.00
2018-08-03T11:24:02.210Z,11196.00
2018-08-03T11:25:02.098Z,11524.00
2018-08-03T11:26:02.070Z,11652.00
2018-08-03T11:27:02.077Z,11824.00
2018-08-03T11:28:02.046Z,12012.00
2018-08-03T11:29:02.038Z,11904.00
2018-08-03T11:30:02.030Z,11840.00
2018-08-03T11:31:02.042Z,12084.00
2018-08-03T11:32:02.011Z,11668.00
2018-08-03T11:33:01.999Z,6788.00
2018-08-03T11:34:02.011Z,5700.00
2018-08-03T11:35:02.034Z,10236.00
2018-08-03T11:36:01.972Z,13192.00
2018-08-03T11:37:01.992Z,14048.00
2018-08-03T11:38:01.948Z,14208.00
2018-08-03T11:39:01.936Z,14528.00
2018-08-03T11:40:01.933Z,14592.00
2018-08-03T11:41:01.918Z,14464.00
2018-08-03T11:42:01.968Z,15424.00
2018-08-03T11:43:01.904Z,14496.00
2018-08-03T11:44:01.889Z,13856.00
2018-08-03T11:45:01.878Z,13856.00
2018-08-03T11:46:02.000Z,12116.00
2018-08-03T11:47:01.857Z,7176.00
2018-08-03T11:48:01.851Z,12264.00
2018-08-03T11:49:01.843Z,5544.00
2018-08-03T11:50:01.830Z,5612.00
2018-08-03T11:51:01.849Z,6184.00
2018-08-03T11:52:01.809Z,6900.00
2018-08-03T11:53:01.800Z,7164.00
2018-08-03T11:54:01.836Z,14784.00
2018-08-03T11:55:01.778Z,14240.00
2018-08-03T11:56:01.787Z,14784.00
2018-08-03T11:57:01.755Z,13680.00
2018-08-03T11:58:01.745Z,10620.00
2018-08-03T11:59:01.736Z,6140.00
2018-08-03T12:00:01.753Z,9344.00
2018-08-03T12:01:01.718Z,15488.00
2018-08-03T12:02:01.800Z,14880.00
2018-08-03T12:03:01.697Z,13628.00
2018-08-03T12:04:01.691Z,13984.00
2018-08-03T12:05:01.677Z,14208.00
2018-08-03T12:06:01.693Z,6176.00
2018-08-03T12:07:01.658Z,5384.00
2018-08-03T12:08:01.647Z,5512.00
2018-08-03T12:09:01.639Z,8320.00
2018-08-03T12:10:01.629Z,9944.00
2018-08-03T12:11:01.639Z,13112.00
2018-08-03T12:12:01.610Z,13672.00
2018-08-03T12:13:01.601Z,13272.00
2018-08-03T12:14:01.616Z,12688.00
2018-08-03T12:15:01.582Z,12000.00
2018-08-03T12:16:01.572Z,11912.00
2018-08-03T12:17:01.558Z,11836.00
2018-08-03T12:18:01.661Z,11732.00
2018-08-03T12:19:01.540Z,11592.00
2018-08-03T12:20:01.529Z,11528.00
2018-08-03T12:21:01.521Z,11332.00
2018-08-03T12:22:01.514Z,11272.00
2018-08-03T12:23:01.523Z,11092.00
2018-08-03T12:24:01.495Z,10756.00
2018-08-03T12:25:01.481Z,10392.00
2018-08-03T12:26:01.468Z,10336.00
2018-08-03T12:27:01.497Z,10388.00
2018-08-03T12:28:01.448Z,10552.00
2018-08-03T12:29:01.455Z,10440.00
2018-08-03T12:30:01.433Z,10392.00
2018-08-03T12:31:01.424Z,10432.00
2018-08-03T12:32:01.440Z,10496.00
2018-08-03T12:33:01.407Z,10520.00
2018-08-03T12:34:02.962Z,10692.00
2018-08-03T12:35:01.381Z,10976.00
2018-08-03T12:36:01.371Z,11152.00
2018-08-03T12:37:01.423Z,11904.00
2018-08-03T12:38:01.359Z,12660.00
2018-08-03T12:39:01.341Z,12492.00
2018-08-03T12:40:01.337Z,12480.00
2018-08-03T12:41:01.332Z,12724.00
2018-08-03T12:42:01.331Z,13672.00
2018-08-03T12:43:01.301Z,13808.00
2018-08-03T12:44:01.296Z,13632.00
2018-08-03T12:45:01.310Z,13272.00
2018-08-03T12:46:01.346Z,13136.00
2018-08-03T12:47:01.266Z,13684.00
2018-08-03T12:48:01.254Z,13936.00
2018-08-03T12:49:01.243Z,13544.00
2018-08-03T12:50:01.255Z,13412.00
2018-08-03T12:51:01.223Z,13340.00
2018-08-03T12:52:01.244Z,13504.00
2018-08-03T12:53:01.286Z,13316.00
2018-08-03T12:54:01.194Z,13060.00
2018-08-03T12:55:01.184Z,13064.00
2018-08-03T12:56:01.181Z,12900.00
2018-08-03T12:57:01.198Z,16544.00
2018-08-03T12:58:01.153Z,70880.00
2018-08-03T12:59:01.145Z,115008.00
2018-08-03T13:00:01.131Z,110720.00
2018-08-03T13:01:01.125Z,109024.00
2018-08-03T13:02:01.236Z,115648.00
2018-08-03T13:03:01.103Z,117184.00
2018-08-03T13:04:01.097Z,115680.00
2018-08-03T13:05:01.091Z,114304.00
2018-08-03T13:06:01.078Z,113888.00
2018-08-03T13:07:01.091Z,115296.00
2018-08-03T13:08:01.313Z,114336.00
2018-08-03T13:09:01.049Z,112448.00
2018-08-03T13:10:01.043Z,78752.00
2018-08-03T13:11:01.072Z,25664.00
2018-08-03T13:12:01.084Z,12640.00
2018-08-03T13:13:01.048Z,12300.00
2018-08-03T13:14:01.051Z,11724.00
2018-08-03T13:15:01.184Z,11492.00
2018-08-03T13:16:01.080Z,11456.00
2018-08-03T13:17:01.056Z,11408.00
2018-08-03T13:18:01.071Z,11324.00
2018-08-03T13:19:01.048Z,11236.00
2018-08-03T13:20:01.063Z,10972.00
2018-08-03T13:21:01.052Z,10908.00
2018-08-03T13:22:00.960Z,10928.00
2018-08-03T13:23:00.952Z,10996.00
2018-08-03T13:24:00.963Z,10864.00
2018-08-03T13:25:01.057Z,10884.00
2018-08-03T13:26:00.942Z,10916.00
2018-08-03T13:27:00.915Z,10816.00
2018-08-03T13:28:00.947Z,10704.00
2018-08-03T13:29:00.911Z,11064.00
2018-08-03T13:30:00.897Z,11812.00
2018-08-03T13:31:01.112Z,13404.00
2018-08-03T13:32:00.903Z,27840.00
2018-08-03T13:33:00.899Z,76992.00
2018-08-03T13:34:00.884Z,111520.00
2018-08-03T13:35:00.876Z,109888.00
2018-08-03T13:36:00.822Z,109504.00
2018-08-03T13:37:00.970Z,109536.00
2018-08-03T13:38:01.182Z,108640.00
2018-08-03T13:39:00.830Z,112416.00
2018-08-03T13:40:00.782Z,109024.00
2018-08-03T14:07:27.080Z,113952.00
2018-08-03T14:08:27.046Z,89120.00
2018-08-03T14:09:27.044Z,61888.00
2018-08-03T14:10:27.056Z,41280.00
2018-08-03T14:11:27.024Z,36576.00
2018-08-03T14:12:27.021Z,35584.00
2018-08-03T14:13:27.045Z,35200.00
2018-08-03T14:14:27.006Z,34976.00
2018-08-03T14:15:27.067Z,34784.00
2018-08-03T14:16:27.001Z,35264.00
2018-08-03T14:17:26.992Z,35808.00
2018-08-03T14:18:27.012Z,35968.00
2018-08-03T14:19:26.971Z,36160.00
2018-08-03T14:20:26.966Z,35936.00
2018-08-03T14:21:26.955Z,35648.00
2018-08-03T14:22:27.023Z,36064.00
2018-08-03T14:23:26.970Z,34432.00
2018-08-03T14:24:26.937Z,16160.00
2018-08-03T14:25:26.964Z,14356.00
2018-08-03T14:26:26.921Z,10972.00
2018-08-03T14:27:26.915Z,10176.00
2018-08-03T14:28:26.943Z,18464.00
2018-08-03T14:29:26.905Z,42368.00
2018-08-03T14:30:26.903Z,35616.00
2018-08-03T14:31:26.928Z,46528.00
2018-08-03T14:32:26.876Z,29120.00
2018-08-03T14:33:26.893Z,20960.00
2018-08-03T14:34:26.860Z,12216.00
2018-08-03T14:35:26.851Z,10976.00
2018-08-03T14:36:26.843Z,12672.00
2018-08-03T14:37:26.836Z,15728.00
2018-08-03T14:38:27.955Z,15268.00
2018-08-03T14:39:26.818Z,9464.00
2018-08-03T14:40:26.822Z,8328.00
2018-08-03T14:41:26.802Z,8808.00
2018-08-03T14:42:26.792Z,7684.00
2018-08-03T14:43:26.797Z,7748.00
2018-08-03T14:44:26.799Z,7732.00
2018-08-03T14:45:26.762Z,7676.00
2018-08-03T14:46:26.753Z,7680.00
2018-08-03T14:47:26.751Z,7676.00
2018-08-03T14:48:26.738Z,7676.00
2018-08-03T14:49:26.751Z,7508.00
2018-08-03T14:50:26.956Z,7632.00
2018-08-03T14:51:26.815Z,8468.00
2018-08-03T14:52:26.733Z,8316.00
2018-08-03T14:53:26.687Z,8304.00
2018-08-03T14:54:26.677Z,8676.00
2018-08-03T14:55:26.668Z,7404.00
2018-08-03T14:56:26.656Z,7160.00
2018-08-03T14:57:26.673Z,9224.00
2018-08-03T14:58:26.636Z,11696.00
2018-08-03T14:59:26.628Z,11952.00
2018-08-03T15:00:26.618Z,7696.00
2018-08-03T15:01:26.608Z,7240.00
2018-08-03T15:02:26.626Z,7920.00
2018-08-03T15:03:26.590Z,7740.00
2018-08-03T15:04:26.580Z,7136.00
2018-08-03T15:05:26.569Z,7280.00
2018-08-03T15:06:26.559Z,7328.00
2018-08-03T15:07:26.572Z,7356.00
2018-08-03T15:08:26.540Z,16608.00
2018-08-03T15:09:26.529Z,15300.00
2018-08-03T15:10:26.530Z,7088.00
2018-08-03T15:11:26.533Z,6788.00
2018-08-03T15:12:26.506Z,6796.00
2018-08-03T15:13:26.492Z,6880.00
2018-08-03T15:14:26.512Z,6968.00
2018-08-03T15:15:26.472Z,6960.00
2018-08-03T15:16:26.490Z,6888.00
2018-08-03T15:17:26.452Z,6772.00
2018-08-03T15:18:26.478Z,6748.00
2018-08-03T15:19:26.631Z,6700.00
2018-08-03T15:20:26.425Z,6732.00
2018-08-03T15:21:26.415Z,6680.00
2018-08-03T15:22:26.413Z,6556.00
2018-08-03T15:23:26.420Z,6492.00
2018-08-03T15:24:26.388Z,6440.00
2018-08-03T15:25:26.407Z,6476.00
2018-08-03T15:26:26.365Z,6440.00
2018-08-03T15:27:26.356Z,6500.00
2018-08-03T15:28:26.347Z,6544.00
2018-08-03T15:29:26.337Z,6564.00
2018-08-03T15:30:26.351Z,6660.00
2018-08-03T15:31:26.314Z,6732.00
2018-08-03T15:32:26.308Z,6756.00
2018-08-03T15:33:26.332Z,6668.00
2018-08-03T15:34:26.287Z,6680.00
2018-08-03T15:35:26.275Z,6664.00
2018-08-03T15:36:26.268Z,6652.00
2018-08-03T15:37:26.254Z,6684.00
2018-08-03T15:38:26.274Z,6728.00
2018-08-03T15:39:26.240Z,6760.00
2018-08-03T15:40:26.226Z,6760.00
2018-08-03T15:41:26.294Z,6812.00
2018-08-03T15:42:26.204Z,6800.00
2018-08-03T15:43:26.228Z,6836.00
2018-08-03T15:44:26.192Z,6764.00
2018-08-03T15:45:26.178Z,6796.00
2018-08-03T15:46:26.165Z,6732.00
2018-08-03T15:47:26.174Z,6800.00
2018-08-03T15:48:26.171Z,6760.00
2018-08-03T15:49:26.137Z,6792.00
2018-08-03T15:50:26.161Z,6808.00
2018-08-03T15:51:26.120Z,6792.00
2018-08-03T15:52:26.105Z,6788.00
2018-08-03T15:53:26.101Z,6732.00
2018-08-03T15:54:26.086Z,6648.00
2018-08-03T15:55:26.102Z,6580.00
2018-08-03T15:56:26.069Z,6544.00
2018-08-03T15:57:26.059Z,6524.00
2018-08-03T15:58:26.048Z,6452.00
2018-08-03T15:59:26.070Z,6424.00
2018-08-03T16:00:26.026Z,6332.00
2018-08-03T16:01:26.018Z,6292.00
2018-08-03T16:02:26.040Z,6256.00
2018-08-03T16:03:25.998Z,6204.00
2018-08-03T16:04:25.986Z,6208.00
2018-08-03T16:05:25.976Z,6184.00
2018-08-03T16:06:25.972Z,6156.00
2018-08-03T16:07:25.990Z,6132.00
2018-08-03T16:08:25.947Z,6156.00
2018-08-03T16:09:25.947Z,6044.00
2018-08-03T16:10:25.934Z,5992.00
2018-08-03T16:11:25.924Z,5944.00
2018-08-03T16:12:25.939Z,5872.00
2018-08-03T16:13:25.897Z,5816.00
2018-08-03T16:14:25.890Z,5732.00
2018-08-03T16:15:25.880Z,5704.00
2018-08-03T16:16:25.867Z,5628.00
2018-08-03T16:17:25.900Z,5608.00
2018-08-03T16:18:25.848Z,5532.00
2018-08-03T16:19:25.837Z,5476.00
2018-08-03T16:20:25.832Z,5416.00
2018-08-03T16:21:25.820Z,5376.00
2018-08-03T16:22:25.843Z,5340.00
2018-08-03T16:23:25.803Z,5272.00
2018-08-03T16:24:25.787Z,5252.00
2018-08-03T16:25:25.781Z,5204.00
2018-08-03T16:26:25.771Z,5168.00
2018-08-03T16:27:25.782Z,5092.00
2018-08-03T16:28:25.747Z,5012.00
2018-08-03T16:29:25.761Z,4952.00
2018-08-03T16:30:25.726Z,4884.00
2018-08-03T16:31:25.714Z,4812.00
2018-08-03T16:32:25.727Z,4772.00
2018-08-03T16:33:25.693Z,4748.00
2018-08-03T16:34:25.706Z,4716.00
2018-08-03T16:35:25.672Z,4688.00
2018-08-03T16:36:25.665Z,4676.00
2018-08-03T16:37:25.660Z,4652.00
2018-08-03T16:38:25.677Z,4604.00
2018-08-03T16:39:25.631Z,4540.00
2018-08-03T16:40:25.622Z,4452.00
2018-08-03T16:41:25.610Z,4376.00
2018-08-03T16:42:25.634Z,4312.00
2018-08-03T16:43:25.590Z,4236.00
2018-08-03T16:44:25.582Z,4172.00
2018-08-03T16:45:25.570Z,4120.00
2018-08-03T16:46:25.564Z,4072.00
2018-08-03T16:47:25.688Z,4028.00
2018-08-03T16:48:25.561Z,3984.00
2018-08-03T16:49:25.538Z,3932.00
2018-08-03T16:50:25.521Z,3876.00
2018-08-03T16:51:25.509Z,3812.00
2018-08-03T16:52:25.537Z,3748.00
2018-08-03T16:53:25.506Z,3676.00
2018-08-03T16:54:25.480Z,3592.00
2018-08-03T16:55:25.468Z,3508.00
2018-08-03T16:56:25.459Z,3424.00
2018-08-03T16:57:25.470Z,3344.00
2018-08-03T16:58:25.443Z,3248.00
2018-08-03T16:59:25.440Z,3152.00
2018-08-03T17:00:25.416Z,3060.00
2018-08-03T17:01:25.440Z,2968.00
2018-08-03T17:02:25.396Z,2876.00
2018-08-03T17:03:25.384Z,2816.00
2018-08-03T17:04:25.375Z,2764.00
2018-08-03T17:05:25.365Z,2712.00
2018-08-03T17:06:25.381Z,2664.00
2018-08-03T17:07:25.346Z,2628.00
2018-08-03T17:08:25.359Z,2580.00
2018-08-03T17:09:25.326Z,2536.00
2018-08-03T17:10:25.333Z,2492.00
2018-08-03T17:11:25.304Z,2456.00
2018-08-03T17:12:25.295Z,2416.00
2018-08-03T17:13:25.308Z,2376.00
2018-08-03T17:14:25.290Z,2336.00
2018-08-03T17:15:25.266Z,2304.00
2018-08-03T17:16:25.252Z,2268.00
2018-08-03T17:17:25.244Z,2232.00
2018-08-03T17:18:25.259Z,2200.00
2018-08-03T17:19:25.221Z,2172.00
2018-08-03T17:20:25.209Z,2132.00
2018-08-03T17:21:25.200Z,2088.00
2018-08-03T17:22:25.191Z,2044.00
2018-08-03T17:23:25.204Z,2000.00
2018-08-03T17:24:25.170Z,1956.00
2018-08-03T17:25:25.159Z,1916.00
2018-08-03T17:26:25.148Z,1876.00
2018-08-03T17:27:25.138Z,1828.00
2018-08-03T17:28:25.163Z,1796.00
2018-08-03T17:29:25.120Z,1764.00
2018-08-03T17:30:25.105Z,1724.00
2018-08-03T17:31:25.095Z,1688.00
2018-08-03T17:32:25.089Z,1656.00
2018-08-03T17:33:25.111Z,1632.00
2018-08-03T17:34:25.064Z,1592.00
2018-08-03T17:35:25.053Z,1564.00
2018-08-03T17:36:25.046Z,1536.00
2018-08-03T17:37:25.034Z,1504.00
2018-08-03T17:38:25.047Z,1480.00
2018-08-03T17:39:25.012Z,1452.00
2018-08-03T17:40:25.003Z,1428.00
2018-08-03T17:41:24.992Z,1408.00
2018-08-03T17:42:25.052Z,1380.00
2018-08-03T17:43:24.995Z,1356.00
2018-08-03T17:44:24.977Z,1336.00
2018-08-03T17:45:24.958Z,1316.00
2018-08-03T17:46:24.939Z,1292.00
2018-08-03T17:47:24.928Z,1268.00
2018-08-03T17:48:24.922Z,1248.00
2018-08-03T17:49:24.942Z,1236.00
2018-08-03T17:50:24.909Z,1220.00
2018-08-03T17:51:24.888Z,1212.00
2018-08-03T17:52:24.874Z,1196.00
2018-08-03T17:53:24.864Z,1180.00
2018-08-03T17:54:24.879Z,1152.00
2018-08-03T17:55:24.842Z,1152.00
2018-08-03T17:56:24.863Z,1140.00
2018-08-03T17:57:24.851Z,1140.00
2018-08-03T17:58:24.812Z,1128.00
2018-08-03T17:59:24.803Z,1100.00
2018-08-03T18:00:24.792Z,1084.00
2018-08-03T18:01:24.782Z,1068.00
2018-08-03T18:02:24.790Z,1052.00
2018-08-03T18:03:24.760Z,1036.00
2018-08-03T18:04:24.746Z,1024.00
2018-08-03T18:05:24.738Z,1012.00
2018-08-03T18:06:24.726Z,992.00
2018-08-03T18:07:24.738Z,976.00
2018-08-03T18:08:24.706Z,960.00
2018-08-03T18:09:24.748Z,940.00
2018-08-03T18:10:24.684Z,924.00
2018-08-03T18:11:24.671Z,908.00
2018-08-03T18:12:24.693Z,884.00
2018-08-03T18:13:24.687Z,868.00
2018-08-03T18:14:24.642Z,848.00
2018-08-03T18:15:24.633Z,832.00
2018-08-03T18:16:24.618Z,812.00
2018-08-03T18:17:24.610Z,796.00
2018-08-03T18:18:24.624Z,780.00
2018-08-03T18:19:24.587Z,760.00
2018-08-03T18:20:24.580Z,748.00
2018-08-03T18:21:24.568Z,728.00
2018-08-03T18:22:24.557Z,712.00
2018-08-03T18:23:24.582Z,696.00
2018-08-03T18:24:24.536Z,680.00
2018-08-03T18:25:24.524Z,668.00
2018-08-03T18:26:24.517Z,652.00
2018-08-03T18:27:24.507Z,636.00
2018-08-03T18:28:24.522Z,624.00
2018-08-03T18:29:24.488Z,608.00
2018-08-03T18:30:24.476Z,592.00
2018-08-03T18:31:24.527Z,576.00
2018-08-03T18:32:24.455Z,560.00
2018-08-03T18:33:24.475Z,544.00
2018-08-03T18:34:24.436Z,524.00
2018-08-03T18:35:24.422Z,512.00
2018-08-03T18:36:24.408Z,496.00
2018-08-03T18:37:24.398Z,480.00
2018-08-03T18:38:24.423Z,460.00
2018-08-03T18:39:24.379Z,448.00
2018-08-03T18:40:24.371Z,428.00
2018-08-03T18:41:24.354Z,412.00
2018-08-03T18:42:24.344Z,396.00
2018-08-03T18:43:24.364Z,380.00
2018-08-03T18:44:24.326Z,364.00
2018-08-03T18:45:24.348Z,348.00
2018-08-03T18:46:24.307Z,328.00
2018-08-03T18:47:24.302Z,316.00
2018-08-03T18:48:24.282Z,304.00
2018-08-03T18:49:24.273Z,288.00
2018-08-03T18:50:24.383Z,276.00
2018-08-03T18:51:24.250Z,264.00
2018-08-03T18:52:24.237Z,248.00
2018-08-03T18:53:24.228Z,236.00
2018-08-03T18:54:24.217Z,224.00
2018-08-03T18:55:24.254Z,208.00
2018-08-03T18:56:24.197Z,196.00
2018-08-03T18:57:24.188Z,188.00
2018-08-03T18:58:24.175Z,172.00
2018-08-03T18:59:24.163Z,164.00
2018-08-03T19:00:24.176Z,152.00
2018-08-03T19:01:24.142Z,144.00
2018-08-03T19:02:24.133Z,132.00
2018-08-03T19:03:24.130Z,124.00
2018-08-03T19:04:24.108Z,116.00
2018-08-03T19:05:24.124Z,104.00
2018-08-03T19:06:24.113Z,100.00
2018-08-03T19:07:24.078Z,88.00
2018-08-03T19:08:24.068Z,80.00
2018-08-03T19:09:24.055Z,76.00
2018-08-03T19:10:24.046Z,68.00
2018-08-03T19:11:24.060Z,64.00
2018-08-03T19:12:24.030Z,56.00
2018-08-03T19:13:24.038Z,48.00
2018-08-03T19:14:24.001Z,44.00
2018-08-03T19:15:24.047Z,36.00
2018-08-03T19:16:23.982Z,36.00
2018-08-03T19:17:23.974Z,32.00
2018-08-03T19:18:23.965Z,28.00
2018-08-03T19:19:23.950Z,24.00
2018-08-03T19:20:23.961Z,20.00
2018-08-03T19:21:23.931Z,20.00
2018-08-03T19:22:23.921Z,16.00
2018-08-03T19:23:23.915Z,16.00
2018-08-03T19:24:23.896Z,12.00
2018-08-03T19:25:23.911Z,8.00
2018-08-03T19:26:23.874Z,8.00
2018-08-03T19:27:23.865Z,4.00
2018-08-03T19:28:23.858Z,4.00
2018-08-03T19:29:23.842Z,4.00
2018-08-03T19:30:23.872Z,4.00
2018-08-03T19:31:23.822Z,0.00
2018-08-03T19:32:23.812Z,4.00
2018-08-03T19:33:23.833Z,4.00
2018-08-03T19:34:23.791Z,4.00
2018-08-03T19:35:23.782Z,0.00
2018-08-03T19:36:23.774Z,0.00
2018-08-03T19:37:23.761Z,0.00
2018-08-03T19:38:23.784Z,0.00
2018-08-03T19:39:23.747Z,0.00
2018-08-03T19:40:24.451Z,0.00
2018-08-03T19:41:24.314Z,0.00
2018-08-03T19:42:23.704Z,0.00
2018-08-03T19:43:23.717Z,0.00
2018-08-03T19:44:23.683Z,0.00
2018-08-03T19:45:23.692Z,0.00
2018-08-03T19:46:23.661Z,0.00
2018-08-03T19:47:23.651Z,0.00
2018-08-03T19:48:23.665Z,0.00
2018-08-03T19:49:23.635Z,0.00
2018-08-03T19:50:23.617Z,0.00
2018-08-03T19:51:23.618Z,0.00
2018-08-03T19:52:23.600Z,0.00
2018-08-03T19:53:23.626Z,0.00
2018-08-03T19:54:23.609Z,0.00
2018-08-03T19:55:23.575Z,0.00
2018-08-03T19:56:24.473Z,0.00
2018-08-03T19:57:23.545Z,0.00
2018-08-03T19:58:23.596Z,0.00
2018-08-03T19:59:24.071Z,0.00
2018-08-03T20:00:23.511Z,0.00
2018-08-03T20:01:23.501Z,0.00
2018-08-03T20:02:23.496Z,0.00
2018-08-03T20:03:23.479Z,0.00
2018-08-03T20:04:23.507Z,0.00
2018-08-03T20:05:23.464Z,0.00
2018-08-03T20:06:23.447Z,0.00
2018-08-03T20:07:23.439Z,0.00
2018-08-03T20:08:23.430Z,0.00
2018-08-03T20:09:23.443Z,0.00
2018-08-03T20:10:23.431Z,0.00
2018-08-03T20:11:23.392Z,0.00
2018-08-03T20:12:23.386Z,0.00
2018-08-03T20:13:23.395Z,0.00
2018-08-03T20:14:23.362Z,0.00
2018-08-03T20:15:23.442Z,0.00
2018-08-03T20:16:23.367Z,0.00
2018-08-03T20:17:23.329Z,0.00
2018-08-03T20:18:23.321Z,0.00
2018-08-03T20:19:23.308Z,0.00
2018-08-03T20:20:23.298Z,0.00
2018-08-03T20:21:23.310Z,0.00
2018-08-03T20:22:23.273Z,0.00
2018-08-03T20:23:23.264Z,0.00
2018-08-03T20:24:23.290Z,0.00
2018-08-03T20:25:23.289Z,0.00
2018-08-03T20:26:23.274Z,0.00
2018-08-03T20:27:23.300Z,0.00
2018-08-03T20:28:23.330Z,0.00
2018-08-03T20:29:23.325Z,0.00
2018-08-03T20:30:25.995Z,0.00
2018-08-03T20:31:23.200Z,0.00
2018-08-03T20:32:23.187Z,0.00
2018-08-03T20:33:23.199Z,0.00
2018-08-03T20:34:23.277Z,0.00
2018-08-03T20:35:23.284Z,0.00
2018-08-03T20:36:23.481Z,0.00
2018-08-03T20:37:23.118Z,0.00
2018-08-03T20:38:23.149Z,0.00
2018-08-03T20:39:23.117Z,0.00
2018-08-03T20:40:23.114Z,0.00
2018-08-03T20:41:23.089Z,0.00
2018-08-03T20:42:23.071Z,0.00
2018-08-03T20:43:23.132Z,0.00
2018-08-03T20:44:23.087Z,0.00
2018-08-03T20:45:23.057Z,0.00
2018-08-03T20:46:23.488Z,0.00
2018-08-03T20:47:23.991Z,0.00
2018-08-03T20:48:23.069Z,0.00
2018-08-03T20:49:23.012Z,0.00
2018-08-03T20:50:23.041Z,0.00
2018-08-03T20:51:22.997Z,0.00
2018-08-03T20:52:22.967Z,0.00
2018-08-03T20:53:22.956Z,0.00
2018-08-03T20:54:22.979Z,0.00
2018-08-03T20:55:23.047Z,0.00
2018-08-03T20:56:22.921Z,0.00
2018-08-03T20:57:22.907Z,0.00
2018-08-03T20:58:22.965Z,0.00
2018-08-03T20:59:22.967Z,0.00
2018-08-03T21:00:22.895Z,0.00
2018-08-03T21:01:22.853Z,0.00
2018-08-03T21:02:22.875Z,0.00
2018-08-03T21:03:22.831Z,0.00
2018-08-03T21:04:22.879Z,0.00
2018-08-03T21:05:22.829Z,0.00
2018-08-03T21:06:22.810Z,0.00
2018-08-03T21:07:22.802Z,0.00
2018-08-03T21:08:22.784Z,0.00
2018-08-03T21:09:22.819Z,0.00
2018-08-03T21:10:22.756Z,0.00
2018-08-03T21:11:22.782Z,0.00
2018-08-03T21:12:22.753Z,0.00
2018-08-03T21:13:22.755Z,0.00
2018-08-03T21:14:22.723Z,0.00
2018-08-03T21:15:22.711Z,0.00
2018-08-03T21:16:22.696Z,0.00
2018-08-03T21:17:22.688Z,0.00
2018-08-03T21:18:22.705Z,0.00
2018-08-03T21:19:22.671Z,0.00
2018-08-03T21:20:22.679Z,0.00
2018-08-03T21:21:22.641Z,0.00
2018-08-03T21:22:22.665Z,0.00
2018-08-03T21:23:22.629Z,0.00
2018-08-03T21:24:22.610Z,0.00
2018-08-03T21:25:22.651Z,0.00
2018-08-03T21:26:22.595Z,0.00
2018-08-03T21:27:22.572Z,0.00
2018-08-03T21:28:22.567Z,0.00
